createdAt,value
2017-08-20T00:02:15.181Z,89.23
2017-08-20T00:04:42.900Z,90.16
2017-08-20T00:07:10.804Z,90.29
2017-08-20T00:09:38.928Z,89.53
2017-08-20T00:12:06.706Z,90.04
2017-08-20T00:14:34.539Z,90.32
2017-08-20T00:17:02.300Z,90.17
2017-08-20T00:19:30.100Z,90.45
2017-08-20T00:21:57.806Z,90.61
2017-08-20T00:24:25.528Z,90.94
2017-08-20T00:26:55.760Z,90.18
2017-08-20T00:29:23.541Z,90.37
2017-08-20T00:31:51.339Z,90.64
2017-08-20T00:34:19.053Z,89.48
2017-08-20T00:36:46.810Z,91.24
2017-08-20T00:39:15.460Z,90.68
2017-08-20T00:41:43.315Z,90.65
2017-08-20T00:44:11.024Z,89.68
2017-08-20T00:46:38.797Z,89.71
2017-08-20T00:49:06.575Z,90.04
2017-08-20T00:51:34.409Z,91.24
2017-08-20T00:54:02.178Z,91.05
2017-08-20T00:56:29.960Z,90.12
2017-08-20T00:58:57.885Z,90.67
2017-08-20T01:01:25.653Z,90.29
2017-08-20T01:03:53.359Z,89.92
2017-08-20T01:06:21.086Z,89.99
2017-08-20T01:08:48.798Z,90.14
2017-08-20T01:11:16.573Z,89.62
2017-08-20T01:13:44.278Z,89.87
2017-08-20T01:16:11.936Z,90.36
2017-08-20T01:18:39.696Z,90.28
2017-08-20T01:21:07.407Z,90.47
2017-08-20T01:23:35.125Z,89.51
2017-08-20T01:26:02.831Z,89.72
2017-08-20T01:28:30.613Z,89.28
2017-08-20T01:30:58.327Z,89.19
2017-08-20T01:33:26.016Z,89.45
2017-08-20T01:35:53.739Z,90.50
2017-08-20T01:38:21.417Z,90.35
2017-08-20T01:40:49.153Z,91.25
2017-08-20T01:43:16.876Z,90.70
2017-08-20T01:45:44.606Z,91.20
2017-08-20T01:48:12.287Z,91.39
2017-08-20T01:50:40.013Z,91.47
2017-08-20T01:53:07.774Z,90.97
2017-08-20T01:55:35.478Z,91.52
2017-08-20T01:58:03.222Z,89.03
2017-08-20T02:00:45.895Z,88.90
2017-08-20T02:03:13.656Z,88.88
2017-08-20T02:05:41.334Z,88.82
2017-08-20T02:08:09.060Z,88.42
2017-08-20T02:10:36.783Z,87.99
2017-08-20T02:13:04.686Z,88.41
2017-08-20T02:15:32.451Z,88.35
2017-08-20T02:18:00.249Z,88.43
2017-08-20T02:20:28.009Z,87.16
2017-08-20T02:22:55.725Z,87.12
2017-08-20T02:25:23.414Z,87.12
2017-08-20T02:27:51.160Z,86.75
2017-08-20T02:30:18.839Z,86.43
2017-08-20T02:32:46.600Z,85.41
2017-08-20T02:35:14.351Z,86.11
2017-08-20T02:37:42.042Z,87.34
2017-08-20T02:40:09.788Z,87.64
2017-08-20T02:42:37.607Z,87.73
2017-08-20T02:45:05.377Z,87.89
2017-08-20T02:47:33.166Z,87.31
2017-08-20T02:50:00.876Z,88.74
2017-08-20T02:52:28.599Z,89.70
2017-08-20T02:54:56.288Z,90.50
2017-08-20T02:57:24.043Z,89.63
2017-08-20T02:59:51.780Z,90.15
2017-08-20T03:02:19.503Z,90.67
2017-08-20T03:04:47.230Z,90.83
2017-08-20T03:07:15.008Z,89.95
2017-08-20T03:09:42.705Z,89.74
2017-08-20T03:12:10.788Z,88.16
2017-08-20T03:14:38.562Z,89.07
2017-08-20T03:17:06.248Z,90.29
2017-08-20T03:19:33.962Z,90.53
2017-08-20T03:22:01.668Z,89.74
2017-08-20T03:24:29.396Z,89.00
2017-08-20T03:26:57.098Z,88.27
2017-08-20T03:29:24.782Z,88.86
2017-08-20T03:31:52.511Z,89.12
2017-08-20T03:34:20.210Z,88.87
2017-08-20T03:36:47.919Z,89.12
2017-08-20T03:39:15.640Z,89.35
2017-08-20T03:41:43.330Z,90.16
2017-08-20T03:44:11.045Z,90.19
2017-08-20T03:46:38.772Z,89.01
2017-08-20T03:49:06.453Z,90.33
2017-08-20T03:51:34.155Z,89.97
2017-08-20T03:54:01.962Z,89.71
2017-08-20T03:56:29.740Z,89.01
2017-08-20T03:58:57.449Z,89.20
2017-08-20T04:01:25.332Z,90.43
2017-08-20T04:03:53.260Z,90.30
2017-08-20T04:06:21.252Z,89.78
2017-08-20T04:08:48.979Z,89.95
2017-08-20T04:11:16.692Z,89.46
2017-08-20T04:13:44.386Z,89.31
2017-08-20T04:16:12.114Z,89.93
2017-08-20T04:18:39.839Z,89.92
2017-08-20T04:21:07.596Z,89.60
2017-08-20T04:23:35.304Z,88.76
2017-08-20T04:26:03.025Z,89.01
2017-08-20T04:28:30.807Z,89.68
2017-08-20T04:30:58.583Z,90.07
2017-08-20T04:33:26.281Z,89.47
2017-08-20T04:35:53.974Z,89.50
2017-08-20T04:38:21.773Z,90.15
2017-08-20T04:40:49.508Z,88.86
2017-08-20T04:43:17.416Z,89.51
2017-08-20T04:45:45.125Z,89.03
2017-08-20T04:48:12.828Z,88.73
2017-08-20T04:50:40.596Z,89.02
2017-08-20T04:53:08.308Z,88.96
2017-08-20T04:55:36.101Z,87.03
2017-08-20T04:58:03.819Z,88.00
2017-08-20T05:00:31.584Z,88.93
2017-08-20T05:02:59.265Z,88.69
2017-08-20T05:05:26.967Z,89.63
2017-08-20T05:07:54.710Z,89.82
2017-08-20T05:10:22.399Z,89.49
2017-08-20T05:12:50.121Z,89.22
2017-08-20T05:15:17.806Z,88.86
2017-08-20T05:17:45.554Z,89.43
2017-08-20T05:20:13.289Z,89.74
2017-08-20T05:22:40.964Z,91.11
2017-08-20T05:25:08.710Z,90.43
2017-08-20T05:27:36.404Z,90.47
2017-08-20T05:30:04.239Z,90.20
2017-08-20T05:32:32.096Z,90.20
2017-08-20T05:34:59.839Z,90.27
2017-08-20T05:37:27.628Z,90.83
2017-08-20T05:39:55.330Z,89.91
2017-08-20T05:42:23.066Z,89.91
2017-08-20T05:44:51.974Z,89.74
2017-08-20T05:47:19.674Z,89.56
2017-08-20T05:49:47.440Z,88.76
2017-08-20T05:52:15.159Z,88.35
2017-08-20T05:54:42.944Z,87.79
2017-08-20T05:57:10.653Z,87.38
2017-08-20T05:59:38.425Z,86.67
2017-08-20T06:02:06.218Z,85.61
2017-08-20T06:04:33.958Z,83.93
2017-08-20T06:07:01.734Z,84.39
2017-08-20T06:09:29.531Z,84.94
2017-08-20T06:11:57.325Z,86.16
2017-08-20T06:14:25.114Z,85.44
2017-08-20T06:16:52.921Z,86.58
2017-08-20T06:19:20.945Z,86.62
2017-08-20T06:21:48.832Z,87.35
2017-08-20T06:24:17.936Z,87.20
2017-08-20T06:26:45.707Z,87.31
2017-08-20T06:29:13.427Z,86.98
2017-08-20T06:31:41.210Z,87.09
2017-08-20T06:34:09.046Z,85.71
2017-08-20T06:36:36.825Z,84.73
2017-08-20T06:39:04.637Z,83.92
2017-08-20T06:41:32.325Z,83.79
2017-08-20T06:44:00.102Z,84.12
2017-08-20T06:46:27.845Z,83.93
2017-08-20T06:48:55.590Z,86.11
2017-08-20T06:51:23.375Z,83.93
2017-08-20T06:53:51.074Z,83.27
2017-08-20T06:56:18.773Z,85.88
2017-08-20T06:58:46.544Z,85.33
2017-08-20T07:01:14.296Z,84.75
2017-08-20T07:03:42.020Z,84.07
2017-08-20T07:06:09.739Z,84.50
2017-08-20T07:08:37.500Z,84.89
2017-08-20T07:11:05.227Z,84.25
2017-08-20T07:13:33.136Z,83.96
2017-08-20T07:16:00.907Z,82.45
2017-08-20T07:18:28.700Z,83.17
2017-08-20T07:20:56.410Z,83.95
2017-08-20T07:23:24.198Z,83.20
2017-08-20T07:25:52.026Z,82.20
2017-08-20T07:28:19.805Z,83.59
2017-08-20T07:30:47.612Z,84.35
2017-08-20T07:33:15.440Z,85.50
2017-08-20T07:35:43.249Z,84.59
2017-08-20T07:38:11.070Z,84.28
2017-08-20T07:40:39.644Z,85.43
2017-08-20T07:43:07.848Z,85.28
2017-08-20T07:45:35.598Z,85.57
2017-08-20T07:48:03.326Z,84.79
2017-08-20T07:50:31.225Z,85.71
2017-08-20T07:52:59.877Z,85.40
2017-08-20T07:55:27.763Z,84.75
2017-08-20T07:57:55.981Z,85.66
2017-08-20T08:00:23.810Z,85.22
2017-08-20T08:02:51.571Z,86.06
2017-08-20T08:05:19.364Z,84.68
2017-08-20T08:07:47.076Z,84.62
2017-08-20T08:10:14.867Z,85.10
2017-08-20T08:12:42.638Z,86.27
2017-08-20T08:15:10.609Z,86.05
2017-08-20T08:17:42.133Z,86.22
2017-08-20T08:20:09.912Z,86.02
2017-08-20T08:22:37.700Z,85.35
2017-08-20T08:25:05.514Z,84.31
2017-08-20T08:27:33.422Z,84.70
2017-08-20T08:30:01.222Z,83.93
2017-08-20T08:32:29.038Z,85.51
2017-08-20T08:34:56.815Z,84.73
2017-08-20T08:37:24.621Z,83.67
2017-08-20T08:39:52.381Z,82.85
2017-08-20T08:42:20.416Z,83.62
2017-08-20T08:44:48.253Z,83.98
2017-08-20T08:47:16.144Z,85.20
2017-08-20T08:49:43.961Z,86.02
2017-08-20T08:52:11.803Z,86.76
2017-08-20T08:54:39.723Z,85.11
2017-08-20T08:57:07.603Z,84.24
2017-08-20T08:59:35.350Z,85.01
2017-08-20T09:02:03.142Z,85.60
2017-08-20T09:04:30.990Z,86.46
2017-08-20T09:06:58.774Z,85.26
2017-08-20T09:09:26.577Z,85.34
2017-08-20T09:11:54.366Z,84.92
2017-08-20T09:14:22.157Z,84.04
2017-08-20T09:16:49.904Z,85.54
2017-08-20T09:19:17.644Z,86.34
2017-08-20T09:21:45.448Z,87.39
2017-08-20T09:24:13.473Z,87.93
2017-08-20T09:26:41.252Z,87.77
2017-08-20T09:29:09.013Z,88.00
2017-08-20T09:31:36.774Z,83.19
2017-08-20T09:34:04.562Z,83.47
2017-08-20T09:36:33.885Z,81.83
2017-08-20T09:39:01.594Z,82.91
2017-08-20T09:41:29.585Z,83.21
2017-08-20T09:43:57.301Z,79.90
2017-08-20T09:46:25.131Z,81.09
2017-08-20T09:48:52.851Z,79.92
2017-08-20T09:51:20.634Z,78.38
2017-08-20T09:53:48.407Z,78.87
2017-08-20T09:56:16.191Z,76.62
2017-08-20T09:58:43.965Z,77.78
2017-08-20T10:01:11.798Z,76.83
2017-08-20T10:03:39.640Z,77.12
2017-08-20T10:06:08.405Z,77.66
2017-08-20T10:08:36.523Z,76.98
2017-08-20T10:11:04.367Z,77.85
2017-08-20T10:13:32.165Z,77.04
2017-08-20T10:16:00.008Z,77.86
2017-08-20T10:18:27.881Z,75.91
2017-08-20T10:20:56.594Z,77.34
2017-08-20T10:23:24.415Z,78.34
2017-08-20T10:25:53.220Z,78.22
2017-08-20T10:28:20.988Z,76.26
2017-08-20T10:30:48.749Z,76.37
2017-08-20T10:33:16.625Z,76.41
2017-08-20T10:35:44.447Z,78.53
2017-08-20T10:38:12.253Z,79.21
2017-08-20T10:40:40.054Z,81.06
2017-08-20T10:43:07.852Z,80.03
2017-08-20T10:45:35.637Z,79.53
2017-08-20T10:48:03.409Z,80.49
2017-08-20T10:50:31.120Z,79.29
2017-08-20T10:52:58.971Z,74.02
2017-08-20T10:55:26.707Z,77.41
2017-08-20T10:57:54.508Z,78.02
2017-08-20T11:00:22.405Z,77.59
2017-08-20T11:02:50.183Z,76.59
2017-08-20T11:05:17.917Z,77.22
2017-08-20T11:07:45.683Z,73.94
2017-08-20T11:10:13.457Z,76.13
2017-08-20T11:12:41.179Z,75.04
2017-08-20T11:15:08.950Z,75.59
2017-08-20T11:17:36.757Z,72.65
2017-08-20T11:20:04.581Z,71.20
2017-08-20T11:22:32.303Z,73.56
2017-08-20T11:25:00.124Z,68.71
2017-08-20T11:27:27.926Z,69.35
2017-08-20T11:29:55.742Z,70.89
2017-08-20T11:32:24.021Z,71.33
2017-08-20T11:34:51.753Z,67.70
2017-08-20T11:37:19.571Z,68.81
2017-08-20T11:39:47.357Z,65.27
2017-08-20T11:42:15.205Z,66.28
2017-08-20T11:44:43.807Z,67.04
2017-08-20T11:47:11.575Z,71.18
2017-08-20T11:49:39.399Z,71.08
2017-08-20T11:52:07.226Z,68.29
2017-08-20T11:54:35.066Z,69.21
2017-08-20T11:57:03.069Z,64.01
2017-08-20T11:59:30.894Z,67.90
2017-08-20T12:01:58.720Z,66.44
2017-08-20T12:04:26.462Z,61.39
2017-08-20T12:06:54.328Z,62.12
2017-08-20T12:09:22.119Z,64.68
2017-08-20T12:11:49.867Z,63.99
2017-08-20T12:14:17.700Z,66.69
2017-08-20T12:16:45.441Z,62.66
2017-08-20T12:19:13.645Z,69.13
2017-08-20T12:21:41.378Z,69.18
2017-08-20T12:24:09.172Z,71.71
2017-08-20T12:26:36.923Z,71.87
2017-08-20T12:29:04.689Z,68.24
2017-08-20T12:31:32.426Z,68.69
2017-08-20T12:34:00.192Z,63.46
2017-08-20T12:36:27.927Z,63.50
2017-08-20T12:38:55.759Z,63.46
2017-08-20T12:41:23.576Z,58.01
2017-08-20T12:43:51.296Z,57.33
2017-08-20T12:46:19.008Z,57.00
2017-08-20T12:48:46.796Z,56.87
2017-08-20T12:51:14.556Z,55.84
2017-08-20T12:53:42.357Z,56.29
2017-08-20T12:56:10.109Z,57.94
2017-08-20T12:58:37.801Z,58.47
2017-08-20T13:01:05.567Z,53.21
2017-08-20T13:03:33.300Z,53.20
2017-08-20T13:06:01.014Z,52.86
2017-08-20T13:08:29.763Z,56.05
2017-08-20T13:10:57.530Z,54.26
2017-08-20T13:13:25.263Z,53.54
2017-08-20T13:15:53.007Z,50.83
2017-08-20T13:18:20.869Z,51.03
2017-08-20T13:20:48.659Z,50.07
2017-08-20T13:23:16.432Z,52.80
2017-08-20T13:25:44.268Z,51.60
2017-08-20T13:28:11.974Z,52.32
2017-08-20T13:30:39.769Z,52.78
2017-08-20T13:33:07.462Z,51.18
2017-08-20T13:35:35.255Z,54.02
2017-08-20T13:38:02.963Z,51.17
2017-08-20T13:40:30.743Z,52.66
2017-08-20T13:42:58.532Z,59.19
2017-08-20T13:45:26.265Z,59.24
2017-08-20T13:47:54.037Z,55.66
2017-08-20T13:50:21.800Z,57.93
2017-08-20T13:52:49.634Z,58.45
2017-08-20T13:55:17.405Z,59.27
2017-08-20T13:57:46.141Z,60.41
2017-08-20T14:00:13.919Z,65.77
2017-08-20T14:02:41.700Z,66.96
2017-08-20T14:05:09.535Z,64.89
2017-08-20T14:07:37.261Z,65.02
2017-08-20T14:10:05.100Z,68.60
2017-08-20T14:12:32.887Z,71.01
2017-08-20T14:15:00.663Z,61.12
2017-08-20T14:17:28.435Z,62.78
2017-08-20T14:19:56.544Z,64.93
2017-08-20T14:22:24.720Z,68.66
2017-08-20T14:24:52.442Z,66.47
2017-08-20T14:27:20.143Z,65.22
2017-08-20T14:29:47.966Z,65.18
2017-08-20T14:32:15.712Z,68.22
2017-08-20T14:34:43.515Z,69.04
2017-08-20T14:37:11.343Z,68.32
2017-08-20T14:39:39.059Z,68.87
2017-08-20T14:42:06.857Z,72.78
2017-08-20T14:44:34.668Z,73.21
2017-08-20T14:47:02.517Z,72.79
2017-08-20T14:49:30.269Z,73.46
2017-08-20T14:51:58.037Z,72.59
2017-08-20T14:54:25.764Z,73.09
2017-08-20T14:56:53.514Z,72.34
2017-08-20T14:59:21.335Z,73.46
2017-08-20T15:01:49.108Z,72.76
2017-08-20T15:04:16.903Z,72.42
2017-08-20T15:06:44.716Z,72.12
2017-08-20T15:09:12.448Z,72.04
2017-08-20T15:11:40.238Z,70.89
2017-08-20T15:14:08.057Z,71.76
2017-08-20T15:16:35.865Z,68.57
2017-08-20T15:19:03.711Z,68.01
2017-08-20T15:21:31.467Z,69.57
2017-08-20T15:23:59.266Z,69.81
2017-08-20T15:26:27.055Z,69.95
2017-08-20T15:28:54.886Z,70.47
2017-08-20T15:31:22.708Z,70.19
2017-08-20T15:33:50.461Z,68.77
2017-08-20T15:36:18.305Z,69.91
2017-08-20T15:38:46.098Z,69.49
2017-08-20T15:41:13.880Z,66.98
2017-08-20T15:43:41.617Z,66.81
2017-08-20T15:46:09.399Z,67.98
2017-08-20T15:48:37.156Z,67.71
2017-08-20T15:51:04.948Z,69.32
2017-08-20T15:53:32.701Z,71.36
2017-08-20T15:56:00.468Z,73.41
2017-08-20T15:58:28.232Z,75.47
2017-08-20T16:00:55.975Z,75.50
2017-08-20T16:03:23.723Z,75.45
2017-08-20T16:05:51.443Z,75.66
2017-08-20T16:08:19.233Z,76.40
2017-08-20T16:10:47.085Z,76.59
2017-08-20T16:13:14.864Z,76.05
2017-08-20T16:15:42.621Z,77.61
2017-08-20T16:18:10.429Z,77.29
2017-08-20T16:20:38.229Z,75.62
2017-08-20T16:23:06.812Z,77.45
2017-08-20T16:25:34.649Z,76.70
2017-08-20T16:28:02.431Z,76.43
2017-08-20T16:30:30.258Z,78.78
2017-08-20T16:32:58.025Z,78.90
2017-08-20T16:35:25.852Z,77.56
2017-08-20T16:37:53.682Z,77.28
2017-08-20T16:40:21.767Z,77.14
2017-08-20T16:42:50.092Z,77.10
2017-08-20T16:45:18.493Z,78.81
2017-08-20T16:47:47.503Z,78.91
2017-08-20T16:50:15.304Z,79.71
2017-08-20T16:52:43.067Z,79.18
2017-08-20T16:55:10.803Z,79.48
2017-08-20T16:57:38.725Z,78.85
2017-08-20T17:00:06.431Z,79.90
2017-08-20T17:02:34.151Z,79.91
2017-08-20T17:05:03.050Z,79.35
2017-08-20T17:07:30.845Z,80.00
2017-08-20T17:09:58.671Z,80.32
2017-08-20T17:12:26.451Z,79.30
2017-08-20T17:14:54.267Z,78.72
2017-08-20T17:17:22.026Z,78.25
2017-08-20T17:19:50.587Z,78.78
2017-08-20T17:22:18.412Z,79.52
2017-08-20T17:24:46.175Z,80.33
2017-08-20T17:27:14.025Z,79.29
2017-08-20T17:29:41.807Z,79.62
2017-08-20T17:32:09.590Z,80.49
2017-08-20T17:34:37.432Z,81.61
2017-08-20T17:37:06.190Z,81.19
2017-08-20T17:39:33.987Z,81.14
2017-08-20T17:42:01.815Z,81.15
2017-08-20T17:44:29.621Z,81.18
2017-08-20T17:46:57.465Z,80.75
2017-08-20T17:49:26.280Z,80.80
2017-08-20T17:51:54.237Z,80.70
2017-08-20T17:54:22.040Z,81.03
2017-08-20T17:56:49.867Z,80.96
2017-08-20T17:59:17.924Z,81.73
2017-08-20T18:01:47.040Z,81.31
2017-08-20T18:04:14.863Z,81.15
2017-08-20T18:06:43.336Z,81.41
2017-08-20T18:09:11.892Z,81.24
2017-08-20T18:11:39.815Z,81.48
2017-08-20T18:14:08.410Z,81.89
2017-08-20T18:16:36.202Z,82.00
2017-08-20T18:19:04.157Z,82.13
2017-08-20T18:21:31.978Z,82.49
2017-08-20T18:24:00.411Z,82.57
2017-08-20T18:26:28.192Z,82.45
2017-08-20T18:28:56.009Z,82.79
2017-08-20T18:31:23.770Z,82.89
2017-08-20T18:33:51.639Z,82.50
2017-08-20T18:36:19.955Z,82.55
2017-08-20T18:38:48.318Z,82.41
2017-08-20T18:41:16.156Z,82.64
2017-08-20T18:43:44.012Z,83.21
2017-08-20T18:46:12.012Z,82.34
2017-08-20T18:48:41.047Z,81.80
2017-08-20T18:51:09.603Z,81.97
2017-08-20T18:53:39.110Z,82.15
2017-08-20T18:56:11.517Z,82.61
2017-08-20T18:58:41.852Z,83.71
2017-08-20T19:01:10.248Z,83.02
2017-08-20T19:03:39.340Z,83.38
2017-08-20T19:06:10.099Z,82.39
2017-08-20T19:08:41.140Z,83.54
2017-08-20T19:11:09.290Z,84.34
2017-08-20T19:13:38.514Z,84.21
2017-08-20T19:16:07.603Z,84.22
2017-08-20T19:18:37.995Z,83.62
2017-08-20T19:21:05.921Z,84.59
2017-08-20T19:23:35.226Z,84.72
2017-08-20T19:26:04.689Z,84.22
2017-08-20T19:28:33.268Z,84.03
2017-08-20T19:31:01.392Z,83.57
2017-08-20T19:33:30.119Z,83.26
2017-08-20T19:35:58.550Z,83.24
2017-08-20T19:38:26.402Z,83.91
2017-08-20T19:40:56.467Z,84.56
2017-08-20T19:43:24.768Z,83.66
2017-08-20T19:45:52.669Z,83.00
2017-08-20T19:48:21.264Z,83.63
2017-08-20T19:50:50.246Z,84.67
2017-08-20T19:53:18.027Z,84.70
2017-08-20T19:55:45.790Z,84.58
2017-08-20T19:58:14.440Z,84.80
2017-08-20T20:00:42.193Z,85.04
2017-08-20T20:03:10.029Z,85.35
2017-08-20T20:05:37.855Z,85.07
2017-08-20T20:08:06.180Z,85.03
2017-08-20T20:10:34.139Z,84.56
2017-08-20T20:13:02.973Z,84.18
2017-08-20T20:15:30.851Z,84.14
2017-08-20T20:17:58.576Z,84.37
2017-08-20T20:20:26.463Z,84.46
2017-08-20T20:22:54.273Z,85.08
2017-08-20T20:25:22.581Z,85.40
2017-08-20T20:27:50.356Z,84.35
2017-08-20T20:30:18.140Z,85.08
2017-08-20T20:32:46.041Z,84.11
2017-08-20T20:35:14.185Z,84.36
2017-08-20T20:37:42.058Z,84.59
2017-08-20T20:40:10.567Z,84.60
2017-08-20T20:42:38.433Z,85.64
2017-08-20T20:45:06.191Z,85.26
2017-08-20T20:47:33.926Z,85.09
2017-08-20T20:50:01.699Z,85.00
2017-08-20T20:52:29.453Z,85.55
2017-08-20T20:54:57.190Z,85.39
2017-08-20T20:57:24.988Z,84.86
2017-08-20T20:59:52.715Z,85.35
2017-08-20T21:02:20.437Z,84.90
2017-08-20T21:04:48.212Z,86.11
2017-08-20T21:07:15.956Z,85.12
2017-08-20T21:09:43.748Z,85.05
2017-08-20T21:12:12.727Z,85.74
2017-08-20T21:14:40.457Z,85.08
2017-08-20T21:17:09.268Z,85.38
2017-08-20T21:19:37.039Z,85.38
2017-08-20T21:22:04.810Z,85.28
2017-08-20T21:24:32.588Z,85.14
2017-08-20T21:27:00.395Z,85.86
2017-08-20T21:29:28.110Z,86.82
2017-08-20T21:31:55.842Z,86.85
2017-08-20T21:34:23.738Z,86.64
2017-08-20T21:36:51.462Z,86.60
2017-08-20T21:39:19.244Z,87.32
2017-08-20T21:41:46.948Z,86.92
2017-08-20T21:44:15.451Z,86.90
2017-08-20T21:46:43.212Z,86.25
2017-08-20T21:49:10.950Z,85.87
2017-08-20T21:51:38.675Z,86.43
2017-08-20T21:54:06.439Z,86.16
2017-08-20T21:56:34.172Z,85.62
2017-08-20T21:59:01.903Z,86.25
2017-08-20T22:01:29.712Z,85.61
2017-08-20T22:03:57.475Z,85.37
2017-08-20T22:06:25.181Z,85.95
2017-08-20T22:08:53.805Z,86.14
2017-08-20T22:11:21.480Z,86.25
2017-08-20T22:13:49.179Z,87.21
2017-08-20T22:16:16.920Z,86.70
2017-08-20T22:18:44.646Z,86.18
2017-08-20T22:21:12.417Z,86.27
2017-08-20T22:23:40.178Z,86.60
2017-08-20T22:26:08.083Z,86.89
2017-08-20T22:28:35.872Z,86.72
2017-08-20T22:31:03.633Z,87.57
2017-08-20T22:33:31.355Z,86.77
2017-08-20T22:35:59.136Z,86.17
2017-08-20T22:38:26.861Z,86.27
2017-08-20T22:40:54.618Z,86.58
2017-08-20T22:43:22.296Z,85.81
2017-08-20T22:45:49.994Z,86.19
2017-08-20T22:48:17.759Z,86.32
2017-08-20T22:50:45.527Z,85.73
2017-08-20T22:53:13.268Z,85.99
2017-08-20T22:55:41.003Z,86.33
2017-08-20T22:58:08.810Z,86.26
2017-08-20T23:00:36.521Z,86.07
2017-08-20T23:03:04.366Z,86.08
2017-08-20T23:05:32.078Z,85.89
2017-08-20T23:07:59.878Z,86.17
2017-08-20T23:10:27.639Z,86.54
2017-08-20T23:12:55.441Z,86.71
2017-08-20T23:15:23.179Z,87.54
2017-08-20T23:17:50.882Z,87.42
2017-08-20T23:20:18.776Z,86.65
2017-08-20T23:22:46.479Z,86.97
2017-08-20T23:25:14.170Z,87.38
2017-08-20T23:27:41.935Z,87.62
2017-08-20T23:30:09.696Z,88.00
2017-08-20T23:32:37.413Z,87.57
2017-08-20T23:35:05.147Z,87.67
2017-08-20T23:37:32.893Z,87.60
2017-08-20T23:40:00.580Z,87.77
2017-08-20T23:42:28.315Z,87.30
2017-08-20T23:44:56.034Z,87.35
2017-08-20T23:47:23.804Z,87.36
2017-08-20T23:49:51.521Z,88.51
2017-08-20T23:52:19.294Z,88.95
2017-08-20T23:54:47.004Z,88.20
2017-08-20T23:57:14.771Z,88.25
2017-08-20T23:59:43.115Z,89.09
